Time;durP1;ratioP1;P1;durP2;ratioP2;P2;SDS_P1;SDS_P2;PMS_P1;PMS_P2;Temp;Humidity;BMP_temperature;BMP_pressure;BME280_temperature;BME280_humidity;BME280_pressure;Samples;Min_cycle;Max_cycle;Signal;HPM_P1;HPM_P2
2024/01/06 00:02:25;;;;;;;10.00;5.33;;;;;;;;;;5028708;28;20654;-77
2024/01/06 00:04:51;;;;;;;7.43;4.67;;;;;;;;;;5029592;28;20538;-77
2024/01/06 00:07:18;;;;;;;6.40;3.50;;;;;;;;;;5027444;28;20191;-78
2024/01/06 00:09:44;;;;;;;7.33;4.17;;;;;;;;;;5027319;28;20482;-77
2024/01/06 00:12:10;;;;;;;9.23;4.33;;;;;;;;;;5014903;28;20198;-78
2024/01/06 00:14:36;;;;;;;8.27;3.77;;;;;;;;;;5030751;28;20182;-78
2024/01/06 00:17:02;;;;;;;6.67;3.57;;;;;;;;;;5025972;28;20186;-78
2024/01/06 00:19:28;;;;;;;5.03;2.97;;;;;;;;;;5009127;28;20667;-78
2024/01/06 00:21:55;;;;;;;5.70;3.30;;;;;;;;;;5029128;28;20190;-78
2024/01/06 00:24:21;;;;;;;6.93;4.03;;;;;;;;;;5031262;28;20189;-78
2024/01/06 00:26:47;;;;;;;8.03;3.90;;;;;;;;;;4990733;28;20182;-78
2024/01/06 00:29:13;;;;;;;6.03;3.63;;;;;;;;;;5025324;28;20650;-78
2024/01/06 00:31:39;;;;;;;5.47;3.57;;;;;;;;;;5034672;28;20214;-77
2024/01/06 00:34:05;;;;;;;7.33;3.90;;;;;;;;;;5037469;28;20190;-77
2024/01/06 00:36:31;;;;;;;6.10;3.30;;;;;;;;;;5014668;28;20236;-78
2024/01/06 00:38:57;;;;;;;5.77;3.10;;;;;;;;;;5029206;28;20179;-77
2024/01/06 00:41:24;;;;;;;5.47;3.07;;;;;;;;;;5012322;28;20555;-78
2024/01/06 00:43:50;;;;;;;8.07;3.17;;;;;;;;;;5031749;28;20206;-77
2024/01/06 00:46:16;;;;;;;4.73;2.70;;;;;;;;;;5028674;28;20240;-77
2024/01/06 00:48:42;;;;;;;5.40;3.30;;;;;;;;;;5023684;28;20194;-77
2024/01/06 00:51:08;;;;;;;6.47;3.53;;;;;;;;;;5026387;28;20217;-77
2024/01/06 00:53:34;;;;;;;4.47;2.80;;;;;;;;;;5032364;28;20578;-77
2024/01/06 00:56:00;;;;;;;5.07;2.73;;;;;;;;;;5030380;28;20202;-77
2024/01/06 00:58:26;;;;;;;6.00;3.60;;;;;;;;;;5035453;28;20178;-77
2024/01/06 01:00:53;;;;;;;8.40;4.23;;;;;;;;;;5000701;28;20191;-77
2024/01/06 01:03:19;;;;;;;7.33;4.10;;;;;;;;;;5012883;28;20202;-78
2024/01/06 01:05:45;;;;;;;7.37;4.50;;;;;;;;;;5028187;28;20206;-78
2024/01/06 01:08:11;;;;;;;10.17;4.30;;;;;;;;;;5034269;28;20724;-78
2024/01/06 01:10:38;;;;;;;6.73;4.30;;;;;;;;;;5030691;28;20349;-77
2024/01/06 01:13:04;;;;;;;5.27;3.57;;;;;;;;;;5036272;28;20202;-78
2024/01/06 01:15:30;;;;;;;6.27;3.70;;;;;;;;;;5026724;28;20210;-77
2024/01/06 01:17:56;;;;;;;6.17;3.80;;;;;;;;;;5027783;28;20183;-77
2024/01/06 01:20:22;;;;;;;6.00;3.17;;;;;;;;;;5032212;28;20183;-78
2024/01/06 01:22:49;;;;;;;6.23;3.47;;;;;;;;;;5033606;28;20297;-78
2024/01/06 01:25:15;;;;;;;6.47;3.30;;;;;;;;;;5033915;28;20274;-78
2024/01/06 01:27:41;;;;;;;7.20;3.33;;;;;;;;;;5031960;28;20254;-77
2024/01/06 01:30:07;;;;;;;4.10;2.93;;;;;;;;;;5005011;28;20207;-76
2024/01/06 01:32:33;;;;;;;5.00;3.00;;;;;;;;;;5025766;28;20202;-77
2024/01/06 01:34:59;;;;;;;6.67;3.10;;;;;;;;;;5014682;28;20194;-78
2024/01/06 01:37:25;;;;;;;4.50;2.77;;;;;;;;;;5030890;28;20178;-77
2024/01/06 01:39:52;;;;;;;4.60;2.70;;;;;;;;;;5032103;28;20187;-77
2024/01/06 01:42:18;;;;;;;4.10;2.50;;;;;;;;;;5015042;28;20217;-77
2024/01/06 01:44:44;;;;;;;5.43;2.97;;;;;;;;;;5032266;28;20178;-78
2024/01/06 01:47:10;;;;;;;5.83;2.70;;;;;;;;;;5029393;28;20229;-78
2024/01/06 01:49:36;;;;;;;6.13;2.90;;;;;;;;;;4993509;28;20272;-77
2024/01/06 01:52:03;;;;;;;5.87;3.03;;;;;;;;;;5028061;28;20248;-77
2024/01/06 01:54:29;;;;;;;6.43;2.80;;;;;;;;;;5032188;28;20186;-77
2024/01/06 01:56:55;;;;;;;6.57;3.50;;;;;;;;;;5030051;28;20178;-78
2024/01/06 01:59:21;;;;;;;5.87;3.30;;;;;;;;;;5028593;28;20175;-77
2024/01/06 02:01:49;;;;;;;5.03;3.17;;;;;;;;;;5026741;28;20274;-78
2024/01/06 02:04:15;;;;;;;5.37;3.13;;;;;;;;;;5029898;28;20449;-78
2024/01/06 02:06:41;;;;;;;6.43;3.20;;;;;;;;;;5026631;28;20664;-78
2024/01/06 02:09:08;;;;;;;5.33;3.10;;;;;;;;;;5032172;28;20187;-76
2024/01/06 02:11:34;;;;;;;5.23;2.87;;;;;;;;;;5011005;28;20215;-77
2024/01/06 02:14:00;;;;;;;6.50;3.30;;;;;;;;;;5032422;28;20717;-77
2024/01/06 02:16:26;;;;;;;6.57;3.50;;;;;;;;;;5026147;28;20600;-77
2024/01/06 02:18:53;;;;;;;6.17;3.00;;;;;;;;;;5031589;28;20210;-77
2024/01/06 02:21:22;;;;;;;4.13;3.17;;;;;;;;;;5033461;28;20213;-78
2024/01/06 02:23:49;;;;;;;5.40;2.80;;;;;;;;;;5032680;28;20206;-77
2024/01/06 02:26:17;;;;;;;4.80;3.17;;;;;;;;;;5010432;28;20328;-78
2024/01/06 02:28:47;;;;;;;5.13;2.93;;;;;;;;;;5007698;28;20666;-77
2024/01/06 02:31:14;;;;;;;4.93;2.83;;;;;;;;;;5027340;28;20214;-77
2024/01/06 02:33:40;;;;;;;5.53;3.20;;;;;;;;;;5031414;28;20207;-78
2024/01/06 02:36:06;;;;;;;4.97;3.10;;;;;;;;;;5003923;28;20189;-78
2024/01/06 02:38:32;;;;;;;5.80;3.17;;;;;;;;;;5033100;28;20178;-77
2024/01/06 02:40:58;;;;;;;4.63;2.97;;;;;;;;;;5024865;28;20191;-78
2024/01/06 02:43:24;;;;;;;7.07;3.77;;;;;;;;;;5028746;28;20201;-78
2024/01/06 02:45:51;;;;;;;6.30;3.63;;;;;;;;;;5027581;28;20267;-78
2024/01/06 02:48:17;;;;;;;6.63;3.37;;;;;;;;;;5034745;28;20186;-77
2024/01/06 02:50:43;;;;;;;5.60;3.30;;;;;;;;;;5028766;28;20222;-77
2024/01/06 02:53:09;;;;;;;6.07;3.43;;;;;;;;;;5012826;28;20226;-77
2024/01/06 02:55:36;;;;;;;7.27;3.40;;;;;;;;;;5025684;28;20194;-77
2024/01/06 02:58:02;;;;;;;6.50;3.47;;;;;;;;;;5023288;28;20183;-78
2024/01/06 03:00:28;;;;;;;5.13;3.40;;;;;;;;;;5032695;28;20210;-78
2024/01/06 03:02:54;;;;;;;5.27;3.43;;;;;;;;;;5021930;28;20210;-78
2024/01/06 03:05:20;;;;;;;6.23;3.40;;;;;;;;;;5026467;28;20270;-77
2024/01/06 03:07:46;;;;;;;7.13;4.10;;;;;;;;;;5029414;28;20181;-77
2024/01/06 03:10:12;;;;;;;5.87;3.40;;;;;;;;;;5033353;28;20199;-78
2024/01/06 03:12:39;;;;;;;6.03;3.23;;;;;;;;;;5026848;28;20256;-77
2024/01/06 03:15:05;;;;;;;6.63;3.53;;;;;;;;;;5030877;28;20179;-78
2024/01/06 03:17:31;;;;;;;6.40;3.70;;;;;;;;;;5026032;28;20636;-76
2024/01/06 03:19:58;;;;;;;7.27;3.40;;;;;;;;;;5013426;28;20266;-76
2024/01/06 03:22:24;;;;;;;8.67;3.40;;;;;;;;;;5029660;28;20205;-78
2024/01/06 03:24:50;;;;;;;6.53;3.60;;;;;;;;;;5023346;28;20193;-78
2024/01/06 03:27:16;;;;;;;6.53;3.10;;;;;;;;;;5031674;28;20821;-78
2024/01/06 03:29:42;;;;;;;5.33;3.10;;;;;;;;;;5025598;28;20189;-77
2024/01/06 03:32:08;;;;;;;7.50;3.63;;;;;;;;;;5025277;28;20240;-78
2024/01/06 03:34:34;;;;;;;6.97;3.70;;;;;;;;;;5025696;28;20287;-78
2024/01/06 03:37:01;;;;;;;7.40;4.27;;;;;;;;;;5033239;28;20208;-78
2024/01/06 03:39:27;;;;;;;7.83;3.70;;;;;;;;;;5037858;28;20182;-78
2024/01/06 03:41:53;;;;;;;13.47;6.27;;;;;;;;;;5027130;28;20284;-77
2024/01/06 03:44:19;;;;;;;10.23;4.33;;;;;;;;;;5034610;28;20178;-78
2024/01/06 03:46:45;;;;;;;8.03;3.70;;;;;;;;;;5007466;28;20179;-78
2024/01/06 03:49:11;;;;;;;5.93;3.63;;;;;;;;;;5020039;28;20207;-78
2024/01/06 03:51:37;;;;;;;6.73;3.20;;;;;;;;;;5023235;28;20268;-78
2024/01/06 03:54:03;;;;;;;7.13;3.37;;;;;;;;;;5009798;28;20199;-78
2024/01/06 03:56:30;;;;;;;6.37;3.23;;;;;;;;;;5018374;28;20188;-78
2024/01/06 03:58:56;;;;;;;7.63;3.43;;;;;;;;;;5033102;28;20182;-77
2024/01/06 04:01:22;;;;;;;8.60;3.60;;;;;;;;;;5023264;28;20249;-78
2024/01/06 04:03:48;;;;;;;7.53;3.60;;;;;;;;;;5029631;28;20202;-78
2024/01/06 04:06:14;;;;;;;5.57;3.43;;;;;;;;;;5025213;28;20379;-77
2024/01/06 04:08:41;;;;;;;9.73;3.07;;;;;;;;;;5024177;28;20686;-77
2024/01/06 04:11:07;;;;;;;5.87;3.33;;;;;;;;;;5018548;28;20298;-78
2024/01/06 04:13:33;;;;;;;6.73;3.50;;;;;;;;;;5028230;28;20249;-78
2024/01/06 04:15:59;;;;;;;6.13;2.90;;;;;;;;;;5024897;28;20694;-78
2024/01/06 04:18:25;;;;;;;6.30;3.03;;;;;;;;;;5025918;28;20574;-78
2024/01/06 04:20:52;;;;;;;5.53;3.13;;;;;;;;;;5026614;28;20252;-78
2024/01/06 04:23:18;;;;;;;5.73;2.77;;;;;;;;;;5020915;28;20250;-78
2024/01/06 04:25:44;;;;;;;5.60;3.10;;;;;;;;;;5010834;28;20194;-78
2024/01/06 04:28:10;;;;;;;6.07;3.20;;;;;;;;;;5028466;28;20179;-78
2024/01/06 04:30:36;;;;;;;7.50;3.50;;;;;;;;;;5025677;28;20464;-77
2024/01/06 04:33:02;;;;;;;6.23;3.30;;;;;;;;;;5028284;28;20206;-78
2024/01/06 04:35:28;;;;;;;6.07;3.27;;;;;;;;;;5028044;28;20353;-78
2024/01/06 04:37:54;;;;;;;6.00;3.13;;;;;;;;;;5030817;28;20263;-78
2024/01/06 04:40:21;;;;;;;6.07;3.23;;;;;;;;;;5026536;28;20662;-77
2024/01/06 04:42:48;;;;;;;6.03;3.37;;;;;;;;;;5027625;28;20253;-78
2024/01/06 04:45:14;;;;;;;4.47;3.00;;;;;;;;;;5011812;28;20190;-78
2024/01/06 04:47:40;;;;;;;7.43;3.60;;;;;;;;;;5033767;28;20190;-77
2024/01/06 04:50:07;;;;;;;5.03;3.37;;;;;;;;;;5034391;28;20191;-78
2024/01/06 04:52:33;;;;;;;4.37;2.90;;;;;;;;;;5025198;28;20705;-78
2024/01/06 04:54:59;;;;;;;4.77;2.97;;;;;;;;;;5020161;28;20244;-78
2024/01/06 04:57:25;;;;;;;4.90;2.83;;;;;;;;;;5026505;28;20190;-78
2024/01/06 04:59:51;;;;;;;6.37;2.93;;;;;;;;;;5032386;28;20195;-78
2024/01/06 05:02:17;;;;;;;5.63;3.20;;;;;;;;;;5014333;28;20198;-78
2024/01/06 05:04:43;;;;;;;7.50;2.80;;;;;;;;;;5016238;28;20197;-78
2024/01/06 05:07:09;;;;;;;4.47;2.97;;;;;;;;;;5030138;28;20178;-77
2024/01/06 05:09:36;;;;;;;4.07;2.97;;;;;;;;;;5010236;28;20179;-78
2024/01/06 05:12:02;;;;;;;4.83;3.00;;;;;;;;;;5023261;28;20560;-78
2024/01/06 05:14:28;;;;;;;7.27;3.97;;;;;;;;;;5031443;28;20201;-78
2024/01/06 05:16:54;;;;;;;6.67;3.70;;;;;;;;;;5030495;28;20217;-78
2024/01/06 05:19:21;;;;;;;5.30;3.20;;;;;;;;;;5031197;28;20182;-78
2024/01/06 05:21:50;;;;;;;3.80;2.93;;;;;;;;;;5031958;28;20281;-78
2024/01/06 05:24:16;;;;;;;5.47;3.53;;;;;;;;;;5027226;28;20180;-77
2024/01/06 05:26:42;;;;;;;8.93;3.67;;;;;;;;;;5020027;28;20238;-77
2024/01/06 05:29:08;;;;;;;7.17;3.70;;;;;;;;;;5032981;28;20178;-78
2024/01/06 05:31:34;;;;;;;6.53;3.10;;;;;;;;;;5030647;28;20214;-78
2024/01/06 05:34:01;;;;;;;5.97;3.07;;;;;;;;;;5026638;28;20670;-78
2024/01/06 05:36:27;;;;;;;5.20;3.60;;;;;;;;;;5032536;28;20536;-77
2024/01/06 05:38:53;;;;;;;10.93;3.83;;;;;;;;;;5025326;28;20190;-78
2024/01/06 05:41:19;;;;;;;7.83;3.77;;;;;;;;;;5014605;28;20605;-78
2024/01/06 05:43:45;;;;;;;6.53;3.70;;;;;;;;;;5024895;28;20214;-77
2024/01/06 05:46:11;;;;;;;10.27;4.00;;;;;;;;;;5024771;28;20187;-77
2024/01/06 05:48:37;;;;;;;7.10;4.20;;;;;;;;;;5014739;28;20198;-77
2024/01/06 05:51:06;;;;;;;6.93;4.00;;;;;;;;;;5026110;28;20211;-78
2024/01/06 05:53:33;;;;;;;8.10;3.90;;;;;;;;;;5031790;28;20226;-78
2024/01/06 05:55:59;;;;;;;7.90;4.23;;;;;;;;;;5027703;28;20186;-77
2024/01/06 05:58:25;;;;;;;5.17;3.90;;;;;;;;;;5033705;28;20191;-77
2024/01/06 06:00:51;;;;;;;7.57;3.70;;;;;;;;;;5033053;28;20767;-77
2024/01/06 06:03:17;;;;;;;6.37;3.70;;;;;;;;;;5027654;28;20253;-77
2024/01/06 06:05:44;;;;;;;6.23;3.60;;;;;;;;;;5013418;28;20205;-77
2024/01/06 06:08:11;;;;;;;6.10;3.50;;;;;;;;;;4993228;28;20202;-78
2024/01/06 06:10:59;;;;;;;6.97;3.70;;;;;;;;;;5033188;28;20203;-78
2024/01/06 06:13:26;;;;;;;5.90;3.40;;;;;;;;;;5022668;28;20217;-78
2024/01/06 06:15:52;;;;;;;6.30;3.77;;;;;;;;;;5030132;28;20187;-78
2024/01/06 06:18:18;;;;;;;5.63;3.43;;;;;;;;;;5011334;28;20249;-78
2024/01/06 06:20:45;;;;;;;4.87;3.40;;;;;;;;;;5034506;28;20194;-77
2024/01/06 06:23:11;;;;;;;6.90;3.70;;;;;;;;;;5027709;28;20206;-78
2024/01/06 06:25:39;;;;;;;7.37;3.90;;;;;;;;;;5022034;28;20684;-77
2024/01/06 06:28:06;;;;;;;5.40;3.30;;;;;;;;;;5031510;28;20247;-77
2024/01/06 06:30:32;;;;;;;6.37;3.60;;;;;;;;;;5030034;28;20226;-77
2024/01/06 06:32:59;;;;;;;8.07;3.60;;;;;;;;;;5032757;28;20686;-78
2024/01/06 06:35:25;;;;;;;5.70;3.60;;;;;;;;;;5030477;28;20233;-78
2024/01/06 06:37:51;;;;;;;6.90;3.60;;;;;;;;;;5031989;28;20191;-78
2024/01/06 06:40:17;;;;;;;7.73;3.37;;;;;;;;;;5031734;28;20255;-78
2024/01/06 06:42:43;;;;;;;7.20;3.47;;;;;;;;;;5027802;28;20730;-77
2024/01/06 06:45:11;;;;;;;7.53;3.57;;;;;;;;;;5011248;28;20178;-78
2024/01/06 06:47:37;;;;;;;6.80;3.57;;;;;;;;;;5033393;28;20261;-77
2024/01/06 06:50:04;;;;;;;6.50;3.47;;;;;;;;;;5032250;28;20190;-78
2024/01/06 06:52:30;;;;;;;7.60;3.60;;;;;;;;;;5024785;28;20215;-78
2024/01/06 06:54:56;;;;;;;4.80;3.07;;;;;;;;;;5026799;28;20553;-78
2024/01/06 06:57:23;;;;;;;6.30;3.30;;;;;;;;;;5005714;28;20179;-78
2024/01/06 06:59:49;;;;;;;6.70;3.50;;;;;;;;;;5025476;28;20217;-78
2024/01/06 07:02:16;;;;;;;6.07;3.47;;;;;;;;;;5017602;28;20202;-78
2024/01/06 07:04:42;;;;;;;6.27;3.60;;;;;;;;;;5020477;28;20278;-78
2024/01/06 07:07:08;;;;;;;5.33;3.60;;;;;;;;;;5013974;28;20186;-78
2024/01/06 07:09:35;;;;;;;5.23;3.23;;;;;;;;;;5028464;28;20185;-78
2024/01/06 07:12:01;;;;;;;4.93;3.27;;;;;;;;;;5024902;28;20225;-78
2024/01/06 07:14:27;;;;;;;7.80;3.50;;;;;;;;;;5022264;28;20187;-78
2024/01/06 07:16:53;;;;;;;5.80;3.33;;;;;;;;;;5024781;28;20605;-78
2024/01/06 07:19:19;;;;;;;6.40;3.23;;;;;;;;;;5011868;28;20244;-76
2024/01/06 07:21:45;;;;;;;6.73;3.60;;;;;;;;;;5025143;28;20194;-78
2024/01/06 07:24:12;;;;;;;5.53;3.40;;;;;;;;;;5027812;28;20186;-78
2024/01/06 07:26:38;;;;;;;5.03;3.30;;;;;;;;;;5045857;28;20174;-78
2024/01/06 07:29:04;;;;;;;6.20;3.60;;;;;;;;;;5030150;28;20178;-77
2024/01/06 07:31:30;;;;;;;6.73;3.23;;;;;;;;;;5011636;28;20298;-77
2024/01/06 07:33:57;;;;;;;8.13;3.37;;;;;;;;;;5043037;28;20222;-78
2024/01/06 07:36:23;;;;;;;7.90;3.30;;;;;;;;;;5015200;28;20637;-78
2024/01/06 07:38:49;;;;;;;6.53;3.10;;;;;;;;;;5025159;28;20244;-78
2024/01/06 07:41:15;;;;;;;5.77;3.30;;;;;;;;;;5032890;28;20194;-78
2024/01/06 07:43:41;;;;;;;7.07;3.30;;;;;;;;;;5027483;28;20206;-76
2024/01/06 07:46:09;;;;;;;7.03;3.67;;;;;;;;;;5026836;28;20631;-78
2024/01/06 07:48:35;;;;;;;6.73;3.87;;;;;;;;;;5028114;28;20596;-78
2024/01/06 07:51:03;;;;;;;5.63;3.17;;;;;;;;;;5032835;28;20586;-78
2024/01/06 07:53:29;;;;;;;9.80;3.60;;;;;;;;;;5010457;28;20697;-78
2024/01/06 07:55:55;;;;;;;6.77;3.23;;;;;;;;;;5017901;28;20221;-78
2024/01/06 07:58:22;;;;;;;4.73;3.30;;;;;;;;;;5024275;28;20175;-78
2024/01/06 08:00:48;;;;;;;5.60;3.43;;;;;;;;;;5028483;28;20210;-77
2024/01/06 08:03:16;;;;;;;4.63;3.33;;;;;;;;;;5028470;28;20241;-76
2024/01/06 08:05:42;;;;;;;6.93;3.90;;;;;;;;;;5027066;28;20562;-77
2024/01/06 08:08:08;;;;;;;8.07;3.80;;;;;;;;;;5031566;28;21566;-77
2024/01/06 08:10:34;;;;;;;5.83;3.73;;;;;;;;;;5029739;28;20557;-77
2024/01/06 08:13:00;;;;;;;7.70;3.80;;;;;;;;;;5024977;28;20264;-77
2024/01/06 08:15:27;;;;;;;7.00;3.90;;;;;;;;;;5009969;28;21334;-77
2024/01/06 08:17:53;;;;;;;5.23;3.53;;;;;;;;;;5021979;28;20261;-77
2024/01/06 08:20:19;;;;;;;6.50;3.57;;;;;;;;;;5032616;28;20189;-80
2024/01/06 08:22:45;;;;;;;8.87;3.73;;;;;;;;;;5027302;28;20225;-77
2024/01/06 08:25:13;;;;;;;5.03;3.80;;;;;;;;;;5023364;28;20190;-77
2024/01/06 08:27:39;;;;;;;7.17;4.50;;;;;;;;;;5019771;28;20183;-79
2024/01/06 08:30:06;;;;;;;6.30;3.90;;;;;;;;;;5028790;28;20237;-77
2024/01/06 08:32:32;;;;;;;5.73;3.57;;;;;;;;;;5022625;28;20219;-77
2024/01/06 08:34:58;;;;;;;5.53;3.90;;;;;;;;;;5029106;28;20228;-80
2024/01/06 08:37:24;;;;;;;5.97;3.60;;;;;;;;;;5036249;28;20179;-81
2024/01/06 08:39:50;;;;;;;6.30;3.90;;;;;;;;;;5029842;28;20191;-79
2024/01/06 08:42:17;;;;;;;7.57;4.17;;;;;;;;;;5031958;28;20697;-77
2024/01/06 08:44:43;;;;;;;7.80;4.20;;;;;;;;;;5015824;28;20793;-80
2024/01/06 08:47:10;;;;;;;7.83;4.70;;;;;;;;;;5010702;28;20178;-80
2024/01/06 08:49:36;;;;;;;7.07;4.47;;;;;;;;;;5027528;28;20187;-79
2024/01/06 08:52:02;;;;;;;8.57;4.10;;;;;;;;;;5026131;28;20245;-79
2024/01/06 08:54:28;;;;;;;6.80;4.80;;;;;;;;;;5014721;28;20178;-79
2024/01/06 08:56:55;;;;;;;5.30;4.03;;;;;;;;;;5027067;28;20199;-76
2024/01/06 08:59:21;;;;;;;7.17;4.10;;;;;;;;;;5011704;28;20175;-79
2024/01/06 09:01:48;;;;;;;6.77;4.37;;;;;;;;;;5034333;28;20198;-78
2024/01/06 09:04:14;;;;;;;6.37;4.03;;;;;;;;;;5014661;28;20195;-78
2024/01/06 09:06:45;;;;;;;7.07;4.33;;;;;;;;;;5018976;28;20205;-79
2024/01/06 09:09:11;;;;;;;5.40;3.83;;;;;;;;;;5027950;28;20194;-79
2024/01/06 09:11:37;;;;;;;6.43;3.93;;;;;;;;;;5028048;28;20314;-76
2024/01/06 09:14:03;;;;;;;6.70;4.40;;;;;;;;;;5016327;28;20206;-79
2024/01/06 09:16:30;;;;;;;7.13;4.70;;;;;;;;;;5005068;28;20187;-80
2024/01/06 09:18:56;;;;;;;5.87;4.10;;;;;;;;;;5025411;28;20190;-79
2024/01/06 09:21:22;;;;;;;5.77;4.23;;;;;;;;;;4995051;28;20775;-79
2024/01/06 09:23:48;;;;;;;5.73;4.47;;;;;;;;;;5028148;28;20257;-79
2024/01/06 09:26:16;;;;;;;7.57;4.37;;;;;;;;;;5028402;28;21947;-80
2024/01/06 09:28:42;;;;;;;8.03;4.10;;;;;;;;;;5012751;28;20182;-79
2024/01/06 09:31:08;;;;;;;5.33;4.40;;;;;;;;;;5015161;28;20682;-79
2024/01/06 09:33:35;;;;;;;6.57;4.03;;;;;;;;;;5012421;28;20207;-79
2024/01/06 09:36:01;;;;;;;5.83;4.30;;;;;;;;;;4996378;28;20191;-78
2024/01/06 09:38:27;;;;;;;6.80;4.30;;;;;;;;;;5010148;28;20661;-77
2024/01/06 09:40:54;;;;;;;6.57;4.23;;;;;;;;;;5013472;28;20237;-79
2024/01/06 09:43:20;;;;;;;6.73;4.20;;;;;;;;;;5009298;28;20216;-77
2024/01/06 09:45:49;;;;;;;5.23;3.70;;;;;;;;;;5028729;28;20182;-78
2024/01/06 09:48:16;;;;;;;8.77;4.30;;;;;;;;;;5027600;28;20682;-77
2024/01/06 09:50:44;;;;;;;5.10;4.13;;;;;;;;;;5010307;28;20301;-78
2024/01/06 09:53:14;;;;;;;5.67;4.43;;;;;;;;;;5025276;28;20209;-77
2024/01/06 09:55:40;;;;;;;6.47;4.00;;;;;;;;;;5025977;28;20710;-78
2024/01/06 09:58:06;;;;;;;6.03;4.30;;;;;;;;;;5024236;28;20289;-77
2024/01/06 10:00:33;;;;;;;7.37;4.60;;;;;;;;;;5025487;28;20194;-77
2024/01/06 10:02:59;;;;;;;5.73;4.20;;;;;;;;;;5022496;28;20757;-78
2024/01/06 10:05:25;;;;;;;8.27;4.20;;;;;;;;;;5021727;28;20243;-78
2024/01/06 10:07:52;;;;;;;6.27;4.57;;;;;;;;;;5047153;28;20201;-79
2024/01/06 10:10:19;;;;;;;8.47;4.43;;;;;;;;;;5024124;28;20633;-77
2024/01/06 10:12:46;;;;;;;8.40;4.77;;;;;;;;;;5031423;28;20285;-75
2024/01/06 10:15:12;;;;;;;8.63;4.60;;;;;;;;;;5034373;28;20226;-77
2024/01/06 10:17:39;;;;;;;6.87;4.50;;;;;;;;;;5035087;28;20210;-77
2024/01/06 10:20:09;;;;;;;8.13;4.40;;;;;;;;;;5026982;28;20183;-77
2024/01/06 10:22:41;;;;;;;6.83;4.57;;;;;;;;;;5018413;28;20210;-79
2024/01/06 10:25:08;;;;;;;6.60;4.50;;;;;;;;;;5009266;28;20236;-82
2024/01/06 10:27:41;;;;;;;7.87;4.30;;;;;;;;;;5017521;28;20201;-79
2024/01/06 10:30:08;;;;;;;7.40;4.70;;;;;;;;;;5019837;28;20190;-79
2024/01/06 10:32:35;;;;;;;6.40;4.70;;;;;;;;;;5021018;28;20713;-80
2024/01/06 10:35:03;;;;;;;5.53;4.33;;;;;;;;;;5040778;28;20183;-79
2024/01/06 10:37:30;;;;;;;6.53;4.87;;;;;;;;;;5021627;28;20191;-80
2024/01/06 10:40:18;;;;;;;8.13;4.83;;;;;;;;;;5020324;28;20530;-79
2024/01/06 10:42:45;;;;;;;6.57;4.53;;;;;;;;;;5013896;28;20214;-78
2024/01/06 10:45:12;;;;;;;7.03;4.67;;;;;;;;;;5025800;28;20198;-80
2024/01/06 10:47:41;;;;;;;5.47;4.43;;;;;;;;;;5013847;28;20183;-81
2024/01/06 10:50:10;;;;;;;6.37;4.60;;;;;;;;;;5028263;28;20195;-78
2024/01/06 10:52:37;;;;;;;6.13;4.63;;;;;;;;;;5029151;28;20217;-78
2024/01/06 10:55:04;;;;;;;7.93;5.10;;;;;;;;;;5029098;28;20252;-81
2024/01/06 10:57:31;;;;;;;6.37;4.87;;;;;;;;;;5024592;28;20186;-78
2024/01/06 10:59:58;;;;;;;6.37;4.60;;;;;;;;;;5027582;28;20255;-78
2024/01/06 11:02:25;;;;;;;6.30;4.60;;;;;;;;;;5024735;28;20201;-79
2024/01/06 11:04:51;;;;;;;8.27;4.43;;;;;;;;;;5026352;28;20186;-79
2024/01/06 11:07:18;;;;;;;7.40;5.23;;;;;;;;;;5011683;28;20560;-79
2024/01/06 11:09:50;;;;;;;7.00;4.80;;;;;;;;;;5026201;28;20781;-79
2024/01/06 11:12:17;;;;;;;7.53;5.17;;;;;;;;;;5007036;28;20210;-79
2024/01/06 11:14:45;;;;;;;8.50;5.60;;;;;;;;;;5021447;28;20171;-81
2024/01/06 11:17:12;;;;;;;7.73;5.37;;;;;;;;;;5039762;28;20190;-78
2024/01/06 11:19:38;;;;;;;8.27;5.43;;;;;;;;;;5004756;28;20268;-79
2024/01/06 11:22:39;;;;;;;7.67;5.50;;;;;;;;;;5023532;28;20194;-79
2024/01/06 11:25:06;;;;;;;7.23;5.20;;;;;;;;;;5016655;28;20197;-78
2024/01/06 11:27:32;;;;;;;6.97;5.00;;;;;;;;;;5003039;28;20233;-80
2024/01/06 11:30:05;;;;;;;7.07;4.90;;;;;;;;;;5006587;28;20285;-78
2024/01/06 11:32:36;;;;;;;7.47;5.77;;;;;;;;;;5023011;28;20283;-79
2024/01/06 11:35:08;;;;;;;7.87;5.70;;;;;;;;;;5025368;28;20613;-78
2024/01/06 11:37:40;;;;;;;9.10;5.87;;;;;;;;;;5021528;28;20658;-78
2024/01/06 11:40:18;;;;;;;8.10;5.93;;;;;;;;;;5015641;28;20191;-79
2024/01/06 11:42:44;;;;;;;7.27;5.53;;;;;;;;;;5025049;28;20666;-79
2024/01/06 11:45:11;;;;;;;9.83;5.87;;;;;;;;;;5028845;28;20210;-81
2024/01/06 11:47:37;;;;;;;8.77;6.17;;;;;;;;;;5026521;28;20312;-78
2024/01/06 11:50:07;;;;;;;10.33;7.80;;;;;;;;;;5030215;28;20813;-78
2024/01/06 11:52:33;;;;;;;10.50;6.90;;;;;;;;;;5028231;28;20222;-79
2024/01/06 11:54:59;;;;;;;9.70;6.77;;;;;;;;;;5020373;28;20252;-78
2024/01/06 11:57:29;;;;;;;7.83;6.00;;;;;;;;;;5019517;28;20628;-79
2024/01/06 11:59:55;;;;;;;9.77;6.67;;;;;;;;;;5021671;28;20205;-79
2024/01/06 12:02:22;;;;;;;7.53;5.60;;;;;;;;;;5027893;28;20194;-80
2024/01/06 12:04:52;;;;;;;7.30;5.77;;;;;;;;;;5026690;28;20194;-79
2024/01/06 12:07:19;;;;;;;11.73;8.80;;;;;;;;;;5026611;28;20274;-78
2024/01/06 12:09:47;;;;;;;9.13;7.07;;;;;;;;;;5026358;28;20190;-79
2024/01/06 12:12:16;;;;;;;8.50;7.00;;;;;;;;;;5026897;28;20211;-78
2024/01/06 12:14:42;;;;;;;7.63;6.27;;;;;;;;;;5024191;28;20190;-80
2024/01/06 12:17:08;;;;;;;7.73;6.17;;;;;;;;;;5022684;28;20183;-79
2024/01/06 12:19:34;;;;;;;11.00;6.33;;;;;;;;;;5016002;28;20650;-79
2024/01/06 12:22:02;;;;;;;8.53;5.87;;;;;;;;;;5016548;28;20546;-78
2024/01/06 12:24:28;;;;;;;8.53;6.03;;;;;;;;;;5023381;28;20265;-76
2024/01/06 12:26:58;;;;;;;8.23;6.00;;;;;;;;;;5023486;28;20603;-77
2024/01/06 12:29:28;;;;;;;7.33;5.87;;;;;;;;;;5020100;28;20194;-78
2024/01/06 12:31:56;;;;;;;8.70;6.47;;;;;;;;;;5002441;28;20214;-77
2024/01/06 12:34:22;;;;;;;11.27;7.10;;;;;;;;;;5023676;28;20176;-78
2024/01/06 12:36:52;;;;;;;9.40;7.13;;;;;;;;;;5021620;28;20186;-77
2024/01/06 12:39:19;;;;;;;9.03;6.80;;;;;;;;;;5007628;28;20237;-78
2024/01/06 12:41:45;;;;;;;10.03;7.43;;;;;;;;;;5018993;28;20190;-78
2024/01/06 12:44:12;;;;;;;8.30;7.00;;;;;;;;;;5006209;28;20210;-78
2024/01/06 12:46:38;;;;;;;9.80;6.60;;;;;;;;;;4996807;28;20230;-77
2024/01/06 12:49:04;;;;;;;8.83;7.17;;;;;;;;;;5023968;28;20201;-77
2024/01/06 12:51:31;;;;;;;11.50;7.33;;;;;;;;;;5026104;28;20272;-78
2024/01/06 12:53:57;;;;;;;10.07;7.13;;;;;;;;;;5024937;28;20225;-78
2024/01/06 12:56:23;;;;;;;10.67;8.00;;;;;;;;;;5030159;28;20253;-77
2024/01/06 12:58:49;;;;;;;9.03;6.87;;;;;;;;;;5011685;28;20195;-77
2024/01/06 13:01:15;;;;;;;11.90;6.83;;;;;;;;;;5026093;28;20214;-77
2024/01/06 13:03:41;;;;;;;9.10;7.20;;;;;;;;;;5001580;28;20217;-77
2024/01/06 13:06:08;;;;;;;8.07;6.63;;;;;;;;;;5023622;28;20185;-77
2024/01/06 13:08:34;;;;;;;13.33;7.47;;;;;;;;;;5030157;28;20182;-78
2024/01/06 13:11:00;;;;;;;9.53;7.20;;;;;;;;;;5010112;28;20578;-78
2024/01/06 13:13:26;;;;;;;9.43;7.87;;;;;;;;;;5029972;28;20234;-77
2024/01/06 13:15:52;;;;;;;9.47;7.83;;;;;;;;;;5022857;28;20187;-77
2024/01/06 13:18:19;;;;;;;9.20;6.77;;;;;;;;;;5036159;28;20241;-77
2024/01/06 13:20:45;;;;;;;9.10;6.87;;;;;;;;;;5026430;28;20276;-77
2024/01/06 13:23:12;;;;;;;8.10;6.40;;;;;;;;;;5027656;28;20290;-80
2024/01/06 13:25:39;;;;;;;8.73;7.53;;;;;;;;;;5029751;28;20202;-84
2024/01/06 13:28:08;;;;;;;9.87;7.40;;;;;;;;;;5022602;28;21215;-76
2024/01/06 13:30:34;;;;;;;9.63;7.53;;;;;;;;;;5020241;28;20438;-77
2024/01/06 13:33:01;;;;;;;10.87;8.50;;;;;;;;;;5019616;28;20202;-74
2024/01/06 13:35:30;;;;;;;13.20;9.90;;;;;;;;;;5023325;28;20198;-74
2024/01/06 13:37:56;;;;;;;12.07;9.10;;;;;;;;;;5018879;28;20187;-75
2024/01/06 13:40:22;;;;;;;10.77;8.90;;;;;;;;;;5018043;28;20289;-75
2024/01/06 13:42:52;;;;;;;9.27;7.70;;;;;;;;;;5024644;28;20207;-75
2024/01/06 13:45:18;;;;;;;10.73;7.27;;;;;;;;;;5024646;28;20187;-75
2024/01/06 13:47:44;;;;;;;8.57;6.67;;;;;;;;;;5019862;28;20186;-78
2024/01/06 13:50:13;;;;;;;9.13;6.87;;;;;;;;;;5019190;28;20190;-77
2024/01/06 13:52:39;;;;;;;8.73;6.47;;;;;;;;;;5024451;28;20575;-75
2024/01/06 13:55:06;;;;;;;7.50;6.00;;;;;;;;;;5022018;28;20214;-78
2024/01/06 13:57:32;;;;;;;11.13;6.53;;;;;;;;;;5028437;28;20187;-77
2024/01/06 13:59:58;;;;;;;8.27;6.20;;;;;;;;;;5028895;28;20218;-76
2024/01/06 14:02:25;;;;;;;7.00;6.07;;;;;;;;;;5019398;28;20218;-76
2024/01/06 14:04:51;;;;;;;7.97;6.70;;;;;;;;;;5027171;28;20191;-76
2024/01/06 14:07:22;;;;;;;11.50;6.97;;;;;;;;;;5026001;28;20190;-79
2024/01/06 14:09:48;;;;;;;8.20;6.50;;;;;;;;;;5029048;28;20194;-76
2024/01/06 14:12:14;;;;;;;10.50;6.37;;;;;;;;;;5021758;28;20633;-76
2024/01/06 14:14:41;;;;;;;9.20;6.40;;;;;;;;;;5022550;28;20179;-76
2024/01/06 14:17:08;;;;;;;7.87;6.33;;;;;;;;;;5028928;28;20182;-76
2024/01/06 14:19:34;;;;;;;8.73;6.13;;;;;;;;;;5027834;28;20190;-76
2024/01/06 14:22:00;;;;;;;8.83;7.23;;;;;;;;;;5024476;28;20187;-76
2024/01/06 14:24:26;;;;;;;7.97;6.70;;;;;;;;;;5026291;28;20217;-76
2024/01/06 14:26:55;;;;;;;10.73;6.93;;;;;;;;;;5037378;28;20185;-76
2024/01/06 14:29:21;;;;;;;8.73;7.03;;;;;;;;;;5036136;28;20241;-76
2024/01/06 14:31:48;;;;;;;9.73;7.57;;;;;;;;;;5026810;28;20207;-77
2024/01/06 14:34:14;;;;;;;7.63;6.53;;;;;;;;;;5026826;28;20179;-76
2024/01/06 14:36:47;;;;;;;8.10;6.90;;;;;;;;;;5023904;28;20224;-76
2024/01/06 14:39:16;;;;;;;8.37;6.40;;;;;;;;;;5019499;28;20522;-76
2024/01/06 14:41:42;;;;;;;10.23;7.23;;;;;;;;;;5029419;28;20190;-76